createdAt,value
2023-01-01T00:00:50.953Z,66.51
2023-01-01T00:03:39.550Z,66.70
2023-01-01T00:06:10.014Z,66.78
2023-01-01T00:08:38.665Z,66.50
2023-01-01T00:11:08.915Z,66.48
2023-01-01T00:13:39.574Z,66.50
2023-01-01T00:16:08.318Z,66.47
2023-01-01T00:18:37.371Z,66.46
2023-01-01T00:21:13.080Z,66.39
2023-01-01T00:23:41.582Z,66.43
2023-01-01T00:26:11.293Z,66.49
2023-01-01T00:28:39.617Z,66.55
2023-01-01T00:31:12.170Z,66.34
2023-01-01T00:33:40.190Z,66.20
2023-01-01T00:36:13.882Z,66.28
2023-01-01T00:38:43.663Z,66.47
2023-01-01T00:41:13.668Z,66.44
2023-01-01T00:43:42.310Z,66.42
2023-01-01T00:46:11.292Z,66.37
2023-01-01T00:48:39.871Z,66.39
2023-01-01T00:51:07.907Z,66.30
2023-01-01T00:53:36.711Z,66.36
2023-01-01T00:56:06.505Z,66.43
2023-01-01T00:58:34.707Z,66.25
2023-01-01T01:01:02.875Z,66.06
2023-01-01T01:03:31.133Z,66.15
2023-01-01T01:06:01.016Z,66.13
2023-01-01T01:08:31.570Z,66.04
2023-01-01T01:11:05.900Z,65.93
2023-01-01T01:13:34.012Z,65.81
2023-01-01T01:16:08.037Z,65.89
2023-01-01T01:18:36.770Z,65.88
2023-01-01T01:21:04.964Z,65.96
2023-01-01T01:23:34.278Z,66.02
2023-01-01T01:26:12.745Z,65.97
2023-01-01T01:28:47.096Z,66.04
2023-01-01T01:31:18.754Z,66.04
2023-01-01T01:33:48.762Z,66.06
2023-01-01T01:36:18.907Z,66.02
2023-01-01T01:38:47.906Z,65.70
2023-01-01T01:41:27.242Z,65.54
2023-01-01T01:44:00.920Z,65.28
2023-01-01T01:46:40.231Z,65.25
2023-01-01T01:49:27.418Z,65.36
2023-01-01T01:51:56.568Z,65.46
2023-01-01T01:54:27.656Z,65.60
2023-01-01T01:57:03.733Z,65.45
2023-01-01T01:59:38.728Z,65.54
2023-01-01T02:02:37.627Z,65.57
2023-01-01T02:05:06.699Z,65.51
2023-01-01T02:07:36.170Z,65.49
2023-01-01T02:10:04.676Z,65.39
2023-01-01T02:12:32.863Z,65.36
2023-01-01T02:15:00.929Z,65.36
2023-01-01T02:17:39.276Z,65.26
2023-01-01T02:20:12.857Z,65.23
2023-01-01T02:23:20.260Z,65.08
2023-01-01T02:26:24.373Z,65.10
2023-01-01T02:29:01.407Z,65.15
2023-01-01T02:31:37.516Z,65.20
2023-01-01T02:34:11.640Z,65.16
2023-01-01T02:36:48.631Z,65.23
2023-01-01T02:39:19.921Z,65.25
2023-01-01T02:41:52.800Z,65.19
2023-01-01T02:44:22.955Z,65.07
2023-01-01T02:46:50.904Z,65.10
2023-01-01T02:49:19.080Z,65.00
2023-01-01T02:52:05.326Z,64.88
2023-01-01T02:55:05.105Z,64.85
2023-01-01T02:57:43.219Z,64.81
2023-01-01T03:00:31.814Z,64.85
2023-01-01T03:03:11.950Z,64.87
2023-01-01T03:06:19.959Z,64.84
2023-01-01T03:09:00.068Z,64.86
2023-01-01T03:11:37.632Z,65.03
2023-01-01T03:14:20.163Z,65.02
2023-01-01T03:16:53.456Z,64.90
2023-01-01T03:19:29.470Z,64.93
2023-01-01T03:22:07.613Z,64.74
2023-01-01T03:24:51.315Z,64.66
2023-01-01T03:27:25.099Z,64.78
2023-01-01T03:29:56.953Z,64.75
2023-01-01T03:32:52.101Z,64.74
2023-01-01T03:35:25.715Z,64.76
2023-01-01T03:37:56.175Z,64.72
2023-01-01T03:40:26.231Z,64.77
2023-01-01T03:42:59.889Z,64.74
2023-01-01T03:45:36.747Z,64.74
2023-01-01T03:48:05.534Z,64.73
2023-01-01T03:51:08.576Z,64.80
2023-01-01T03:53:39.316Z,64.76
2023-01-01T03:56:30.926Z,64.65
2023-01-01T03:59:16.828Z,64.71
2023-01-01T04:01:49.218Z,64.86
2023-01-01T04:04:17.957Z,64.93
2023-01-01T04:06:46.373Z,65.18
2023-01-01T04:09:21.837Z,65.18
2023-01-01T04:12:04.050Z,65.37
2023-01-01T04:14:41.436Z,65.43
2023-01-01T04:17:11.537Z,65.46
2023-01-01T04:19:39.842Z,65.26
2023-01-01T04:22:07.943Z,65.20
2023-01-01T04:24:35.947Z,65.08
2023-01-01T04:27:04.067Z,64.99
2023-01-01T04:29:32.008Z,65.02
2023-01-01T04:31:59.918Z,64.86
2023-01-01T04:34:27.878Z,64.74
2023-01-01T04:36:55.994Z,64.84
2023-01-01T04:39:23.946Z,64.99
2023-01-01T04:41:52.609Z,64.93
2023-01-01T04:44:20.643Z,64.74
2023-01-01T04:46:49.029Z,64.76
2023-01-01T04:49:16.938Z,64.74
2023-01-01T04:51:45.106Z,64.84
2023-01-01T04:54:12.959Z,64.88
2023-01-01T04:56:40.806Z,64.87
2023-01-01T04:59:08.977Z,64.89
2023-01-01T05:01:36.990Z,65.17
2023-01-01T05:04:05.093Z,65.27
2023-01-01T05:06:33.093Z,65.19
2023-01-01T05:09:04.027Z,65.27
2023-01-01T05:11:32.641Z,65.25
2023-01-01T05:14:01.887Z,65.06
2023-01-01T05:16:32.637Z,64.79
2023-01-01T05:19:01.341Z,64.79
2023-01-01T05:21:32.143Z,64.68
2023-01-01T05:24:06.282Z,64.73
2023-01-01T05:26:37.280Z,64.69
2023-01-01T05:29:11.908Z,64.63
2023-01-01T05:31:44.837Z,64.67
2023-01-01T05:34:13.247Z,64.53
2023-01-01T05:36:41.246Z,64.48
2023-01-01T05:39:12.083Z,64.39
2023-01-01T05:41:41.145Z,64.47
2023-01-01T05:44:10.429Z,64.46
2023-01-01T05:46:38.560Z,64.46
2023-01-01T05:49:09.836Z,64.21
2023-01-01T05:54:04.927Z,64.22
2023-01-01T05:56:33.197Z,64.31
2023-01-01T05:59:02.657Z,64.38
2023-01-01T06:01:31.715Z,64.46
2023-01-01T06:04:00.568Z,64.38
2023-01-01T06:06:30.996Z,64.37
2023-01-01T06:09:01.511Z,64.30
2023-01-01T06:11:29.658Z,64.24
2023-01-01T06:13:59.720Z,64.25
2023-01-01T06:16:29.549Z,64.13
2023-01-01T06:18:57.883Z,64.06
2023-01-01T06:21:28.255Z,64.20
2023-01-01T06:23:58.194Z,64.15
2023-01-01T06:26:29.898Z,64.16
2023-01-01T06:28:58.807Z,64.21
2023-01-01T06:31:27.749Z,64.27
2023-01-01T06:33:56.353Z,64.37
2023-01-01T06:36:25.789Z,64.28
2023-01-01T06:38:56.489Z,64.12
2023-01-01T06:41:26.197Z,64.06
2023-01-01T06:43:58.814Z,63.68
2023-01-01T06:46:32.881Z,63.78
2023-01-01T06:49:04.783Z,63.65
2023-01-01T06:51:37.684Z,63.52
2023-01-01T06:54:06.782Z,63.53
2023-01-01T06:56:36.570Z,63.51
2023-01-01T06:59:05.225Z,63.60
2023-01-01T07:01:35.869Z,63.73
2023-01-01T07:04:07.785Z,63.48
2023-01-01T07:06:36.384Z,63.34
2023-01-01T07:09:06.131Z,63.21
2023-01-01T07:11:35.478Z,63.27
2023-01-01T07:14:03.814Z,63.12
2023-01-01T07:16:32.281Z,63.04
2023-01-01T07:19:01.299Z,62.91
2023-01-01T07:21:43.811Z,62.78
2023-01-01T07:24:14.121Z,62.75
2023-01-01T07:26:42.424Z,62.68
2023-01-01T07:29:11.257Z,62.62
2023-01-01T07:31:43.077Z,62.64
2023-01-01T07:34:19.841Z,62.45
2023-01-01T07:36:47.977Z,62.27
2023-01-01T07:39:15.925Z,61.92
2023-01-01T07:41:43.873Z,61.81
2023-01-01T07:44:14.410Z,61.67
2023-01-01T07:46:42.354Z,61.65
2023-01-01T07:49:10.540Z,61.48
2023-01-01T07:51:38.827Z,61.20
2023-01-01T07:54:08.090Z,61.34
2023-01-01T07:56:36.854Z,60.95
2023-01-01T07:59:05.471Z,60.67
2023-01-01T08:01:36.926Z,60.60
2023-01-01T08:04:05.861Z,60.40
2023-01-01T08:06:34.298Z,60.46
2023-01-01T08:09:02.331Z,60.37
2023-01-01T08:11:30.369Z,60.28
2023-01-01T08:13:58.305Z,60.18
2023-01-01T08:16:26.307Z,60.01
2023-01-01T08:18:54.231Z,59.83
2023-01-01T08:21:22.249Z,59.91
2023-01-01T08:23:50.458Z,60.03
2023-01-01T08:26:26.406Z,60.02
2023-01-01T08:28:57.318Z,60.00
2023-01-01T08:31:25.722Z,59.88
2023-01-01T08:33:53.969Z,59.82
2023-01-01T08:36:22.107Z,59.47
2023-01-01T08:38:50.211Z,59.25
2023-01-01T08:41:18.165Z,58.94
2023-01-01T08:43:46.176Z,59.13
2023-01-01T08:46:14.291Z,59.08
2023-01-01T08:48:42.895Z,59.04
2023-01-01T08:51:11.174Z,58.94
2023-01-01T08:53:39.136Z,58.88
2023-01-01T08:56:09.956Z,58.82
2023-01-01T08:58:39.930Z,58.70
2023-01-01T09:01:08.223Z,58.43
2023-01-01T09:03:36.906Z,58.44
2023-01-01T09:06:05.145Z,58.36
2023-01-01T09:08:33.533Z,58.14
2023-01-01T09:11:03.526Z,57.97
2023-01-01T09:13:32.132Z,57.52
2023-01-01T09:16:00.342Z,56.98
2023-01-01T09:18:28.248Z,57.24
2023-01-01T09:20:56.116Z,57.42
2023-01-01T09:23:24.009Z,57.03
2023-01-01T09:25:51.967Z,56.66
2023-01-01T09:28:25.453Z,55.94
2023-01-01T09:30:54.243Z,56.31
2023-01-01T09:33:22.161Z,56.33
2023-01-01T09:35:50.289Z,55.95
2023-01-01T09:38:18.430Z,55.48
2023-01-01T09:40:55.556Z,55.59
2023-01-01T09:43:41.011Z,55.41
2023-01-01T09:46:11.254Z,55.32
2023-01-01T09:48:53.117Z,55.17
2023-01-01T09:51:22.765Z,55.24
2023-01-01T09:53:54.323Z,55.46
2023-01-01T09:56:26.817Z,55.40
2023-01-01T09:58:58.940Z,55.58
2023-01-01T10:01:50.427Z,55.82
2023-01-01T10:04:33.860Z,55.56
2023-01-01T10:07:25.829Z,55.48
2023-01-01T10:10:23.342Z,55.30
2023-01-01T10:13:02.689Z,54.77
2023-01-01T10:15:35.399Z,54.17
2023-01-01T10:18:09.177Z,53.73
2023-01-01T10:20:41.579Z,53.58
2023-01-01T10:23:20.825Z,52.89
2023-01-01T10:25:49.035Z,52.70
2023-01-01T10:28:30.672Z,52.96
2023-01-01T10:31:19.662Z,52.79
2023-01-01T10:33:48.427Z,53.73
2023-01-01T10:36:19.584Z,54.52
2023-01-01T10:38:51.313Z,54.98
2023-01-01T10:41:20.480Z,55.23
2023-01-01T10:43:49.507Z,55.52
2023-01-01T10:46:27.588Z,55.48
2023-01-01T10:49:07.101Z,55.19
2023-01-01T10:51:38.111Z,55.15
2023-01-01T10:54:06.736Z,55.03
2023-01-01T10:56:41.791Z,55.35
2023-01-01T10:59:35.022Z,55.71
2023-01-01T11:02:28.368Z,56.20
2023-01-01T11:05:22.819Z,57.15
2023-01-01T11:07:51.157Z,58.64
2023-01-01T11:10:29.254Z,59.34
2023-01-01T11:13:05.897Z,58.80
2023-01-01T11:15:42.950Z,57.63
2023-01-01T11:18:23.917Z,57.31
2023-01-01T11:20:54.787Z,57.52
2023-01-01T11:23:35.905Z,57.66
2023-01-01T11:26:21.317Z,58.03
2023-01-01T11:29:01.334Z,58.30
2023-01-01T11:31:39.256Z,58.53
2023-01-01T11:34:36.619Z,58.72
2023-01-01T11:37:22.731Z,58.74
2023-01-01T11:39:53.144Z,58.54
2023-01-01T11:42:32.077Z,58.22
2023-01-01T11:45:10.982Z,58.40
2023-01-01T11:47:40.965Z,58.77
2023-01-01T11:50:18.235Z,58.46
2023-01-01T11:52:49.487Z,58.47
2023-01-01T11:55:37.969Z,58.37
2023-01-01T11:58:30.254Z,58.68
2023-01-01T12:01:03.407Z,58.74
2023-01-01T12:04:04.158Z,58.59
2023-01-01T12:06:41.337Z,58.74
2023-01-01T12:09:18.464Z,59.18
2023-01-01T12:12:05.676Z,59.58
2023-01-01T12:14:38.408Z,59.94
2023-01-01T12:17:42.164Z,60.46
2023-01-01T12:20:28.872Z,61.08
2023-01-01T12:22:59.429Z,61.38
2023-01-01T12:25:38.885Z,61.56
2023-01-01T12:28:23.107Z,61.77
2023-01-01T12:31:20.250Z,61.96
2023-01-01T12:33:58.826Z,61.94
2023-01-01T12:37:08.477Z,61.92
2023-01-01T12:39:54.728Z,61.96
2023-01-01T12:42:40.105Z,62.36
2023-01-01T12:45:31.223Z,62.48
2023-01-01T12:48:06.223Z,62.72
2023-01-01T12:51:01.466Z,62.83
2023-01-01T12:53:40.495Z,62.84
2023-01-01T12:56:34.064Z,63.09
2023-01-01T12:59:07.882Z,62.93
2023-01-01T13:01:37.336Z,62.69
2023-01-01T13:04:11.162Z,62.85
2023-01-01T13:06:53.623Z,63.09
2023-01-01T13:09:29.049Z,63.20
2023-01-01T13:12:01.575Z,63.21
2023-01-01T13:14:29.967Z,63.09
2023-01-01T13:16:58.320Z,63.25
2023-01-01T13:19:37.865Z,63.41
2023-01-01T13:22:27.796Z,63.69
2023-01-01T13:25:17.951Z,63.84
2023-01-01T13:27:59.418Z,63.91
2023-01-01T13:30:39.947Z,64.11
2023-01-01T13:33:23.251Z,64.49
2023-01-01T13:36:09.174Z,64.61
2023-01-01T13:38:59.537Z,64.51
2023-01-01T13:41:36.893Z,64.45
2023-01-01T13:44:04.855Z,64.50
2023-01-01T13:46:38.154Z,64.45
2023-01-01T13:49:13.383Z,64.21
2023-01-01T13:52:05.935Z,64.06
2023-01-01T13:55:10.302Z,64.00
2023-01-01T13:58:04.462Z,63.98
2023-01-01T14:00:56.688Z,63.99
2023-01-01T14:03:27.571Z,63.95
2023-01-01T14:06:02.559Z,64.10
2023-01-01T14:08:33.461Z,64.14
2023-01-01T14:11:03.703Z,64.18
2023-01-01T14:13:40.711Z,64.17
2023-01-01T14:16:13.701Z,64.19
2023-01-01T14:18:50.849Z,64.11
2023-01-01T14:21:25.738Z,64.15
2023-01-01T14:24:04.484Z,64.08
2023-01-01T14:26:34.242Z,64.13
2023-01-01T14:29:07.537Z,64.23
2023-01-01T14:31:40.586Z,64.32
2023-01-01T14:34:21.344Z,64.45
2023-01-01T14:36:54.971Z,64.62
2023-01-01T14:39:34.402Z,64.70
2023-01-01T14:42:12.466Z,64.78
2023-01-01T14:44:44.561Z,64.96
2023-01-01T14:47:35.184Z,65.09
2023-01-01T14:50:23.773Z,65.31
2023-01-01T14:53:01.122Z,65.32
2023-01-01T14:55:35.258Z,65.33
2023-01-01T14:58:03.729Z,65.30
2023-01-01T15:00:33.872Z,65.64
2023-01-01T15:03:07.960Z,65.78
2023-01-01T15:05:36.878Z,65.91
2023-01-01T15:08:07.459Z,66.13
2023-01-01T15:10:38.595Z,66.22
2023-01-01T15:13:07.868Z,66.39
2023-01-01T15:15:42.880Z,66.57
2023-01-01T15:18:40.450Z,66.61
2023-01-01T15:21:11.621Z,66.86
2023-01-01T15:23:56.272Z,67.01
2023-01-01T15:26:44.074Z,67.21
2023-01-01T15:29:18.107Z,67.15
2023-01-01T15:31:53.986Z,67.27
2023-01-01T15:34:29.681Z,67.16
2023-01-01T15:37:22.032Z,67.35
2023-01-01T15:39:57.741Z,67.49
2023-01-01T15:42:37.868Z,67.46
2023-01-01T15:45:23.870Z,67.55
2023-01-01T15:47:54.133Z,67.79
2023-01-01T15:50:34.479Z,67.90
2023-01-01T15:53:34.940Z,67.92
2023-01-01T15:56:09.720Z,67.96
2023-01-01T15:59:16.505Z,68.35
2023-01-01T16:01:44.975Z,68.59
2023-01-01T16:04:28.281Z,68.56
2023-01-01T16:06:58.656Z,68.50
2023-01-01T16:09:26.820Z,68.50
2023-01-01T16:11:57.209Z,68.52
2023-01-01T16:14:25.044Z,68.60
2023-01-01T16:17:01.239Z,68.62
2023-01-01T16:19:31.232Z,68.60
2023-01-01T16:21:59.211Z,68.32
2023-01-01T16:24:28.110Z,68.26
2023-01-01T16:26:56.071Z,68.57
2023-01-01T16:29:24.267Z,68.58
2023-01-01T16:31:52.452Z,68.70
2023-01-01T16:34:20.472Z,68.65
2023-01-01T16:36:49.751Z,68.60
2023-01-01T16:39:17.956Z,68.92
2023-01-01T16:41:45.968Z,69.20
2023-01-01T16:44:15.542Z,69.31
2023-01-01T16:46:43.942Z,69.31
2023-01-01T16:49:12.093Z,69.50
2023-01-01T16:51:43.794Z,69.73
2023-01-01T16:54:12.263Z,69.60
2023-01-01T16:56:41.033Z,69.56
2023-01-01T16:59:09.226Z,69.67
2023-01-01T17:01:37.285Z,69.60
2023-01-01T17:04:05.402Z,69.48
2023-01-01T17:06:33.771Z,69.70
2023-01-01T17:09:01.755Z,69.91
2023-01-01T17:11:30.348Z,70.04
2023-01-01T17:14:02.445Z,70.14
2023-01-01T17:16:38.221Z,70.26
2023-01-01T17:19:15.138Z,70.32
2023-01-01T17:21:46.124Z,70.11
2023-01-01T17:24:18.688Z,69.90
2023-01-01T17:26:51.756Z,69.62
2023-01-01T17:29:21.043Z,69.60
2023-01-01T17:31:49.165Z,69.58
2023-01-01T17:34:17.819Z,69.87
2023-01-01T17:36:46.374Z,70.28
2023-01-01T17:39:15.385Z,70.84
2023-01-01T17:41:44.951Z,71.53
2023-01-01T17:44:13.199Z,71.85
2023-01-01T17:46:42.770Z,71.80
2023-01-01T17:49:10.776Z,71.84
2023-01-01T17:51:39.471Z,71.85
2023-01-01T17:54:13.395Z,71.77
2023-01-01T17:56:41.822Z,71.76
2023-01-01T17:59:10.412Z,71.90
2023-01-01T18:01:38.839Z,71.79
2023-01-01T18:04:08.948Z,71.84
2023-01-01T18:06:42.532Z,71.99
2023-01-01T18:09:13.708Z,72.03
2023-01-01T18:11:42.312Z,72.19
2023-01-01T18:14:11.816Z,72.37
2023-01-01T18:16:41.557Z,72.56
2023-01-01T18:19:09.742Z,72.85
2023-01-01T18:21:37.887Z,73.09
2023-01-01T18:24:12.314Z,73.02
2023-01-01T18:26:40.300Z,73.00
2023-01-01T18:29:08.727Z,72.98
2023-01-01T18:31:37.114Z,72.92
2023-01-01T18:34:06.913Z,72.89
2023-01-01T18:36:35.664Z,73.00
2023-01-01T18:39:12.656Z,72.91
2023-01-01T18:42:02.206Z,72.90
2023-01-01T18:44:32.247Z,72.89
2023-01-01T18:47:06.179Z,72.89
2023-01-01T18:49:36.821Z,72.75
2023-01-01T18:52:07.733Z,72.67
2023-01-01T18:54:35.886Z,72.73
2023-01-01T18:57:28.846Z,72.81
2023-01-01T19:00:15.472Z,72.73
2023-01-01T19:02:46.196Z,72.77
2023-01-01T19:05:16.448Z,72.77
2023-01-01T19:07:51.371Z,72.66
2023-01-01T19:10:19.548Z,72.62
2023-01-01T19:12:48.364Z,72.74
2023-01-01T19:15:19.126Z,72.65
2023-01-01T19:17:47.518Z,72.66
2023-01-01T19:20:22.432Z,72.71
2023-01-01T19:22:50.444Z,72.78
2023-01-01T19:25:38.670Z,72.82
2023-01-01T19:28:15.730Z,72.72
2023-01-01T19:30:47.614Z,72.64
2023-01-01T19:33:15.750Z,72.72
2023-01-01T19:35:43.763Z,72.67
2023-01-01T19:38:11.742Z,72.61
2023-01-01T19:40:39.964Z,72.67
2023-01-01T19:43:07.853Z,72.81
2023-01-01T19:45:35.865Z,72.66
2023-01-01T19:48:04.347Z,72.76
2023-01-01T19:50:32.431Z,72.87
2023-01-01T19:53:00.934Z,72.78
2023-01-01T19:55:28.872Z,72.95
2023-01-01T19:57:56.811Z,72.98
2023-01-01T20:00:27.551Z,72.94
2023-01-01T20:02:56.241Z,72.93
2023-01-01T20:05:27.826Z,72.88
2023-01-01T20:07:58.256Z,72.71
2023-01-01T20:10:26.305Z,72.82
2023-01-01T20:12:54.181Z,72.66
2023-01-01T20:15:22.219Z,72.62
2023-01-01T20:17:50.881Z,72.73
2023-01-01T20:20:19.168Z,72.87
2023-01-01T20:22:47.379Z,72.99
2023-01-01T20:25:15.436Z,72.89
2023-01-01T20:28:01.972Z,72.92
2023-01-01T20:30:29.940Z,72.80
2023-01-01T20:32:57.866Z,72.83
2023-01-01T20:35:44.590Z,72.75
2023-01-01T20:38:12.593Z,72.64
2023-01-01T20:40:40.625Z,72.58
2023-01-01T20:43:09.188Z,72.50
2023-01-01T20:45:37.116Z,72.56
2023-01-01T20:48:05.664Z,72.45
2023-01-01T20:50:33.557Z,72.28
2023-01-01T20:53:01.577Z,72.41
2023-01-01T20:55:29.487Z,72.33
2023-01-01T20:57:57.477Z,72.39
2023-01-01T21:00:27.228Z,72.46
2023-01-01T21:02:55.301Z,72.49
2023-01-01T21:05:23.716Z,72.54
2023-01-01T21:07:51.737Z,72.67
2023-01-01T21:10:19.706Z,72.75
2023-01-01T21:12:47.896Z,72.98
2023-01-01T21:15:16.323Z,73.05
2023-01-01T21:17:44.697Z,73.19
2023-01-01T21:20:13.505Z,73.20
2023-01-01T21:22:44.626Z,73.19
2023-01-01T21:25:50.557Z,73.35
2023-01-01T21:28:13.607Z,73.32
2023-01-01T21:30:51.396Z,73.33
2023-01-01T21:33:32.347Z,73.35
2023-01-01T21:36:11.583Z,73.34
2023-01-01T21:38:39.833Z,73.31
2023-01-01T21:41:22.514Z,73.40
2023-01-01T21:43:56.312Z,73.37
2023-01-01T21:46:39.633Z,73.37
2023-01-01T21:49:34.647Z,73.33
2023-01-01T21:52:03.698Z,73.28
2023-01-01T21:54:38.611Z,73.35
2023-01-01T21:57:17.429Z,73.39
2023-01-01T21:59:47.397Z,73.28
2023-01-01T22:02:38.424Z,73.31
2023-01-01T22:05:37.360Z,73.19
2023-01-01T22:08:25.293Z,73.09
2023-01-01T22:10:54.145Z,73.03
2023-01-01T22:13:28.710Z,73.05
2023-01-01T22:15:56.603Z,73.04
2023-01-01T22:18:27.126Z,72.98
2023-01-01T22:20:56.576Z,72.95
2023-01-01T22:23:32.384Z,72.98
2023-01-01T22:26:02.163Z,72.99
2023-01-01T22:28:44.739Z,72.94
2023-01-01T22:31:23.550Z,73.14
2023-01-01T22:33:53.096Z,73.27
2023-01-01T22:36:26.367Z,73.30
2023-01-01T22:38:57.601Z,73.25
2023-01-01T22:41:25.955Z,73.23
2023-01-01T22:44:01.622Z,73.00
2023-01-01T22:46:35.384Z,72.96
2023-01-01T22:49:35.919Z,73.03
2023-01-01T22:52:04.773Z,73.06
2023-01-01T22:54:32.608Z,73.22
2023-01-01T22:57:00.455Z,73.26
2023-01-01T22:59:28.584Z,73.29
2023-01-01T23:01:56.698Z,73.27
2023-01-01T23:04:24.619Z,73.26
2023-01-01T23:06:53.442Z,73.08
2023-01-01T23:09:21.372Z,72.95
2023-01-01T23:11:49.992Z,72.78
2023-01-01T23:14:39.181Z,72.86
2023-01-01T23:17:07.714Z,72.78
2023-01-01T23:19:35.779Z,72.76
2023-01-01T23:22:04.447Z,72.85
2023-01-01T23:24:33.207Z,72.93
2023-01-01T23:27:02.682Z,72.77
2023-01-01T23:29:33.402Z,72.69
2023-01-01T23:32:02.215Z,72.77
2023-01-01T23:34:30.589Z,72.69
2023-01-01T23:36:59.002Z,72.90
2023-01-01T23:39:26.878Z,72.84
2023-01-01T23:41:55.435Z,72.79
2023-01-01T23:44:23.462Z,72.82
2023-01-01T23:46:52.393Z,72.83
2023-01-01T23:49:22.206Z,72.86
2023-01-01T23:51:50.867Z,72.88
2023-01-01T23:54:18.721Z,72.88
2023-01-01T23:56:46.750Z,72.90
2023-01-01T23:59:14.600Z,72.89
